Taurus — 2CPB4 — position and weather

sailwx.info

Track history (hours):
 
Tides and Currents Weather Stations Pressure Air Temp Water Temp Dewpoint Dewpoint Depression Visibility Wind Speed Wind Dir Waves Ship Positions

Taurus

Last reported at 2015-Jan-30 23:30 UTC. Time now 2015-Jan-31 07:08 UTC.
Position N 01°10' E 103°48'.

Length 292 m; draft 11.8 m.

Type: Cargo ship. MMSI: 235074621.

Date/timePositionNaut miles runAvg speedWind from/ knotsBaromVisibWave heightAir tempDewpointWater temp
2015-Jan-30 23:30N 01°10' E 103°48'1010.2
2015-Jan-30 22:33N 01°14' E 103°57'3 3.1
2015-Jan-30 21:33N 01°16' E 103°54'0 0.0
2015-Jan-30 20:33N 01°16' E 103°54'0 0.0
2015-Jan-30 19:30N 01°16' E 103°54'0 0.0
2015-Jan-30 18:30N 01°16' E 103°54'0 0.0
2015-Jan-30 17:30N 01°16' E 103°54'0 0.0
2015-Jan-30 16:30N 01°16' E 103°54'0 0.0
2015-Jan-30 15:30N 01°16' E 103°54'0 0.0
2015-Jan-30 14:33N 01°16' E 103°54'0 0.0
2015-Jan-30 13:15N 01°16' E 103°54'0 0.0
2015-Jan-30 12:30N 01°16' E 103°54'0 0.0
2015-Jan-30 11:18N 01°16' E 103°54'0 0.0
2015-Jan-30 10:24N 01°16' E 103°54'0 0.0
2015-Jan-30 09:30N 01°16' E 103°54'0 0.1
2015-Jan-30 08:24N 01°16' E 103°54'0 0.3
2015-Jan-30 07:21N 01°16' E 103°55'0 0.1
2015-Jan-30 06:24N 01°16' E 103°55'0 0.0
2015-Jan-30 05:12N 01°16' E 103°55'0 0.0
2015-Jan-30 04:12N 01°16' E 103°55'0 0.1
2015-Jan-30 03:30N 01°16' E 103°55'0 0.1
2015-Jan-30 01:30N 01°16' E 103°55'0 0.1
2015-Jan-30 00:30N 01°16' E 103°55'0 0.1
2015-Jan-29 23:30N 01°16' E 103°54'0 0.0
2015-Jan-29 22:33N 01°16' E 103°54'0 0.0
2015-Jan-29 21:24N 01°16' E 103°54'0 0.0
2015-Jan-29 20:30N 01°16' E 103°54'0 0.0
2015-Jan-29 19:30N 01°16' E 103°54'0 0.0
2015-Jan-29 18:30N 01°16' E 103°54'0 0.0
2015-Jan-29 17:30N 01°16' E 103°54'0 0.0
2015-Jan-29 16:33N 01°16' E 103°54'0 0.0
2015-Jan-29 15:33N 01°16' E 103°54'0 0.1
2015-Jan-29 14:30N 01°16' E 103°55'0 0.1
2015-Jan-29 13:30N 01°16' E 103°54'0 0.0
2015-Jan-29 12:24N 01°16' E 103°54'0 0.0
2015-Jan-29 11:30N 01°16' E 103°54'0 0.0
2015-Jan-29 10:33N 01°16' E 103°54'0 0.0
2015-Jan-29 09:30N 01°16' E 103°54'0 0.0
2015-Jan-29 08:30N 01°16' E 103°54'0 0.1
2015-Jan-29 07:30N 01°16' E 103°55'0 0.0
2015-Jan-29 06:24N 01°16' E 103°55'0 0.1
2015-Jan-29 05:24N 01°16' E 103°55'1 0.7
2015-Jan-29 04:33N 01°16' E 103°55'4 4.1
2015-Jan-29 03:33N 01°16' E 103°59'6 5.9
2015-Jan-29 02:33N 01°16' E 104°05'8 7.4
2015-Jan-29 01:32N 01°18' E 104°13'  
Track history (hours):
 
Tides and Currents Weather Stations Pressure Air Temp Water Temp Dewpoint Dewpoint Depression Visibility Wind Speed Wind Dir Waves Ship Positions

Taurus

Last reported at 2015-Jan-30 23:30 UTC. Time now 2015-Jan-31 07:08 UTC.
Position N 01°10' E 103°48'.

Length 292 m; draft 11.8 m.

Type: Cargo ship. MMSI: 235074621.

Date/timePositionNaut miles runAvg speedWind from/ knotsBaromVisibWave heightAir tempDewpointWater temp
2015-Jan-30 23:30N 01°10' E 103°48'1010.2
2015-Jan-30 22:33N 01°14' E 103°57'3 3.1
2015-Jan-30 21:33N 01°16' E 103°54'0 0.0
2015-Jan-30 20:33N 01°16' E 103°54'0 0.0
2015-Jan-30 19:30N 01°16' E 103°54'0 0.0
2015-Jan-30 18:30N 01°16' E 103°54'0 0.0
2015-Jan-30 17:30N 01°16' E 103°54'0 0.0
2015-Jan-30 16:30N 01°16' E 103°54'0 0.0
2015-Jan-30 15:30N 01°16' E 103°54'0 0.0
2015-Jan-30 14:33N 01°16' E 103°54'0 0.0
2015-Jan-30 13:15N 01°16' E 103°54'0 0.0
2015-Jan-30 12:30N 01°16' E 103°54'0 0.0
2015-Jan-30 11:18N 01°16' E 103°54'0 0.0
2015-Jan-30 10:24N 01°16' E 103°54'0 0.0
2015-Jan-30 09:30N 01°16' E 103°54'0 0.1
2015-Jan-30 08:24N 01°16' E 103°54'0 0.3
2015-Jan-30 07:21N 01°16' E 103°55'0 0.1
2015-Jan-30 06:24N 01°16' E 103°55'0 0.0
2015-Jan-30 05:12N 01°16' E 103°55'0 0.0
2015-Jan-30 04:12N 01°16' E 103°55'0 0.1
2015-Jan-30 03:30N 01°16' E 103°55'0 0.1
2015-Jan-30 01:30N 01°16' E 103°55'0 0.1
2015-Jan-30 00:30N 01°16' E 103°55'0 0.1
2015-Jan-29 23:30N 01°16' E 103°54'0 0.0
2015-Jan-29 22:33N 01°16' E 103°54'0 0.0
2015-Jan-29 21:24N 01°16' E 103°54'0 0.0
2015-Jan-29 20:30N 01°16' E 103°54'0 0.0
2015-Jan-29 19:30N 01°16' E 103°54'0 0.0
2015-Jan-29 18:30N 01°16' E 103°54'0 0.0
2015-Jan-29 17:30N 01°16' E 103°54'0 0.0
2015-Jan-29 16:33N 01°16' E 103°54'0 0.0
2015-Jan-29 15:33N 01°16' E 103°54'0 0.1
2015-Jan-29 14:30N 01°16' E 103°55'0 0.1
2015-Jan-29 13:30N 01°16' E 103°54'0 0.0
2015-Jan-29 12:24N 01°16' E 103°54'0 0.0
2015-Jan-29 11:30N 01°16' E 103°54'0 0.0
2015-Jan-29 10:33N 01°16' E 103°54'0 0.0
2015-Jan-29 09:30N 01°16' E 103°54'0 0.0
2015-Jan-29 08:30N 01°16' E 103°54'0 0.1
2015-Jan-29 07:30N 01°16' E 103°55'0 0.0
2015-Jan-29 06:24N 01°16' E 103°55'0 0.1
2015-Jan-29 05:24N 01°16' E 103°55'1 0.7
2015-Jan-29 04:33N 01°16' E 103°55'4 4.1
2015-Jan-29 03:33N 01°16' E 103°59'6 5.9
2015-Jan-29 02:33N 01°16' E 104°05'8 7.4
2015-Jan-29 01:32N 01°18' E 104°13'  

Dump ship's entire track history